createdAt,value
2022-10-26T00:00:12.052Z,97633.75
2022-10-26T00:02:38.625Z,97644.91
2022-10-26T00:05:06.359Z,97638.06
2022-10-26T00:07:32.908Z,97632.09
2022-10-26T00:09:59.452Z,97626.09
2022-10-26T00:12:25.914Z,97624.41
2022-10-26T00:14:52.420Z,97621.84
2022-10-26T00:17:18.939Z,97597.59
2022-10-26T00:19:46.532Z,97608.16
2022-10-26T00:22:13.009Z,97600.47
2022-10-26T00:24:39.527Z,97605.59
2022-10-26T00:27:06.000Z,97616.69
2022-10-26T00:29:32.536Z,97625.22
2022-10-26T00:31:59.036Z,97636.31
2022-10-26T00:34:25.580Z,97629.53
2022-10-26T00:36:52.050Z,97623.53
2022-10-26T00:39:18.535Z,97620.97
2022-10-26T00:41:45.052Z,97603.88
2022-10-26T00:44:45.574Z,97597.84
2022-10-26T00:47:30.844Z,97602.06
2022-10-26T00:49:57.926Z,97573.03
2022-10-26T00:52:24.545Z,97587.63
2022-10-26T00:54:51.598Z,97605.47
2022-10-26T00:57:18.100Z,97603.84
2022-10-26T00:59:44.617Z,97604.69
2022-10-26T01:02:11.267Z,97602.97
2022-10-26T01:04:37.816Z,97585.91
2022-10-26T01:07:04.916Z,97564.53
2022-10-26T01:09:32.008Z,97552.59
2022-10-26T01:11:58.671Z,97557.72
2022-10-26T01:14:26.052Z,97564.53
2022-10-26T01:17:11.884Z,97571.38
2022-10-26T01:19:51.798Z,97580.78
2022-10-26T01:22:22.589Z,97568.56
2022-10-26T01:24:55.055Z,97576.50
2022-10-26T01:27:27.517Z,97587.59
2022-10-26T01:30:12.331Z,97479.19
2022-10-26T01:32:45.224Z,97587.59
2022-10-26T01:35:17.258Z,97602.13
2022-10-26T01:37:49.632Z,97622.56
2022-10-26T01:40:42.490Z,97631.97
2022-10-26T01:43:09.636Z,97627.69
2022-10-26T01:45:37.485Z,97613.81
2022-10-26T01:48:04.077Z,97635.34
2022-10-26T01:50:30.567Z,97615.44
2022-10-26T01:52:57.022Z,97627.66
2022-10-26T01:55:44.928Z,97620.84
2022-10-26T01:58:20.320Z,97614.88
2022-10-26T02:00:54.456Z,97608.03
2022-10-26T02:03:41.885Z,97607.16
2022-10-26T02:06:23.044Z,97585.63
2022-10-26T02:08:57.307Z,97590.78
2022-10-26T02:11:40.131Z,97600.34
2022-10-26T02:14:29.367Z,97598.66
2022-10-26T02:16:58.404Z,97604.63
2022-10-26T02:19:29.918Z,97595.28
2022-10-26T02:22:19.684Z,97583.91
2022-10-26T02:24:46.280Z,97597.84
2022-10-26T02:27:18.652Z,97601.22
2022-10-26T02:29:45.199Z,97598.66
2022-10-26T02:32:11.723Z,97593.53
2022-10-26T02:34:38.301Z,97584.97
2022-10-26T02:37:04.831Z,97594.34
2022-10-26T02:39:32.606Z,97596.97
2022-10-26T02:42:01.235Z,97596.91
2022-10-26T02:44:29.044Z,97600.34
2022-10-26T02:46:55.581Z,97589.16
2022-10-26T02:49:22.082Z,97594.34
2022-10-26T02:51:56.489Z,97590.97
2022-10-26T02:54:42.271Z,97579.75
2022-10-26T02:57:26.537Z,97588.38
2022-10-26T02:59:53.002Z,97583.06
2022-10-26T03:02:19.557Z,97585.63
2022-10-26T03:04:46.091Z,97608.84
2022-10-26T03:07:12.626Z,97610.56
2022-10-26T03:09:39.121Z,97616.53
2022-10-26T03:12:05.848Z,97616.56
2022-10-26T03:14:32.358Z,97613.13
2022-10-26T03:16:58.840Z,97607.09
2022-10-26T03:19:25.896Z,97604.59
2022-10-26T03:21:52.363Z,97596.91
2022-10-26T03:24:18.867Z,97602.00
2022-10-26T03:26:45.330Z,97600.31
2022-10-26T03:29:11.828Z,97595.19
2022-10-26T03:31:38.377Z,97594.34
2022-10-26T03:34:04.900Z,97587.50
2022-10-26T03:36:31.430Z,97588.34
2022-10-26T03:38:57.905Z,97587.50
2022-10-26T03:41:24.398Z,97584.06
2022-10-26T03:43:50.873Z,97606.31
2022-10-26T03:46:17.357Z,97605.31
2022-10-26T03:48:43.855Z,97607.97
2022-10-26T03:51:10.335Z,97615.69
2022-10-26T03:53:36.856Z,97634.50
2022-10-26T03:56:03.327Z,97615.66
2022-10-26T03:58:29.844Z,97634.47
2022-10-26T04:00:56.311Z,97627.63
2022-10-26T04:03:22.868Z,97625.06
2022-10-26T04:05:49.418Z,97625.09
2022-10-26T04:08:15.884Z,97621.69
2022-10-26T04:10:42.387Z,97613.13
2022-10-26T04:13:10.462Z,97611.44
2022-10-26T04:15:36.941Z,97602.88
2022-10-26T04:18:03.556Z,97584.06
2022-10-26T04:20:30.611Z,97585.81
2022-10-26T04:23:06.571Z,97589.19
2022-10-26T04:25:33.683Z,97595.19
2022-10-26T04:28:01.148Z,97594.31
2022-10-26T04:30:27.666Z,97596.75
2022-10-26T04:32:54.164Z,97602.88
2022-10-26T04:35:20.644Z,97593.47
2022-10-26T04:37:47.207Z,97602.88
2022-10-26T04:40:13.844Z,97627.63
2022-10-26T04:42:47.171Z,97524.38
2022-10-26T04:45:14.871Z,97631.91
2022-10-26T04:47:41.498Z,97624.13
2022-10-26T04:50:08.639Z,97619.03
2022-10-26T04:52:35.471Z,97628.47
2022-10-26T04:55:02.081Z,97628.47
2022-10-26T04:57:28.637Z,97635.25
2022-10-26T04:59:55.096Z,97630.16
2022-10-26T05:02:21.716Z,97635.25
2022-10-26T05:04:48.403Z,97632.69
2022-10-26T05:07:14.890Z,97638.66
2022-10-26T05:09:41.406Z,97620.50
2022-10-26T05:12:07.894Z,97638.63
2022-10-26T05:14:34.391Z,97666.00
2022-10-26T05:17:00.982Z,97690.75
2022-10-26T05:19:27.456Z,97698.44
2022-10-26T05:21:53.932Z,97710.31
2022-10-26T05:24:20.435Z,97704.41
2022-10-26T05:26:46.910Z,97711.16
2022-10-26T05:29:13.403Z,97726.53
2022-10-26T05:31:39.900Z,97734.22
2022-10-26T05:34:06.440Z,97721.41
2022-10-26T05:36:32.919Z,97710.28
2022-10-26T05:38:59.659Z,97729.84
2022-10-26T05:41:26.239Z,97725.56
2022-10-26T05:43:52.738Z,97737.44
2022-10-26T05:46:19.236Z,97732.28
2022-10-26T05:48:45.723Z,97752.78
2022-10-26T05:51:12.601Z,97748.44
2022-10-26T05:53:39.117Z,97739.06
2022-10-26T05:56:38.828Z,97739.88
2022-10-26T05:59:10.533Z,97730.47
2022-10-26T06:01:40.162Z,97719.38
2022-10-26T06:04:21.754Z,97714.00
2022-10-26T06:06:48.424Z,97714.25
2022-10-26T06:09:15.223Z,97728.84
2022-10-26T06:11:42.032Z,97704.91
2022-10-26T06:14:08.938Z,97671.59
2022-10-26T06:16:41.177Z,97647.72
2022-10-26T06:19:36.265Z,97622.09
2022-10-26T06:22:17.837Z,97628.09
2022-10-26T06:25:15.687Z,97633.22
2022-10-26T06:28:00.930Z,97646.91
2022-10-26T06:30:27.494Z,97652.88
2022-10-26T06:33:01.426Z,97655.44
2022-10-26T06:36:04.789Z,97663.13
2022-10-26T06:38:31.697Z,97674.25
2022-10-26T06:40:58.271Z,97700.66
2022-10-26T06:43:29.730Z,97722.88
2022-10-26T06:46:18.781Z,97723.78
2022-10-26T06:49:21.028Z,97718.72
2022-10-26T06:51:54.847Z,97715.94
2022-10-26T06:54:41.972Z,97738.38
2022-10-26T06:57:10.216Z,97726.41
2022-10-26T07:00:13.135Z,97709.09
2022-10-26T07:02:39.693Z,97716.19
2022-10-26T07:05:10.132Z,97713.59
2022-10-26T07:07:36.615Z,97708.41
2022-10-26T07:10:03.220Z,97717.03
2022-10-26T07:12:32.862Z,97716.91
2022-10-26T07:15:00.699Z,97712.75
2022-10-26T07:17:28.434Z,97714.47
2022-10-26T07:19:55.129Z,97697.34
2022-10-26T07:22:21.624Z,97711.91
2022-10-26T07:24:50.815Z,97719.50
2022-10-26T07:27:20.305Z,97732.41
2022-10-26T07:29:46.790Z,97727.16
2022-10-26T07:32:13.259Z,97739.22
2022-10-26T07:34:39.813Z,97746.88
2022-10-26T07:37:06.344Z,97743.44
2022-10-26T07:39:32.875Z,97745.94
2022-10-26T07:41:59.432Z,97760.50
2022-10-26T07:44:25.939Z,97754.53
2022-10-26T07:46:52.411Z,97751.13
2022-10-26T07:49:19.627Z,97764.81
2022-10-26T07:51:46.687Z,97765.66
2022-10-26T07:54:13.169Z,97765.66
2022-10-26T07:56:39.656Z,97759.75
2022-10-26T07:59:06.113Z,97763.94
2022-10-26T08:01:32.704Z,97760.59
2022-10-26T08:03:59.247Z,97764.03
2022-10-26T08:06:25.787Z,97764.91
2022-10-26T08:08:52.677Z,97758.06
2022-10-26T08:11:19.239Z,97762.41
2022-10-26T08:13:45.805Z,97758.94
2022-10-26T08:16:12.392Z,97762.41
2022-10-26T08:18:38.903Z,97765.81
2022-10-26T08:21:11.265Z,97759.88
2022-10-26T08:23:38.405Z,97765.00
2022-10-26T08:26:05.037Z,97765.84
2022-10-26T08:28:31.548Z,97772.72
2022-10-26T08:30:58.147Z,97765.84
2022-10-26T08:33:24.796Z,97778.69
2022-10-26T08:36:04.866Z,97781.25
2022-10-26T08:38:33.769Z,97779.56
2022-10-26T08:41:01.356Z,97778.75
2022-10-26T08:43:30.159Z,97769.16
2022-10-26T08:46:14.511Z,97786.47
2022-10-26T08:48:44.399Z,97779.66
2022-10-26T08:51:13.652Z,97774.38
2022-10-26T08:54:10.292Z,97778.84
2022-10-26T08:56:50.713Z,97777.09
2022-10-26T08:59:17.423Z,97781.41
2022-10-26T09:01:43.972Z,97783.94
2022-10-26T09:04:11.917Z,97774.50
2022-10-26T09:06:50.400Z,97788.22
2022-10-26T09:09:22.620Z,97763.19
2022-10-26T09:12:07.372Z,97788.28
2022-10-26T09:14:44.506Z,97789.06
2022-10-26T09:17:42.915Z,97789.06
2022-10-26T09:20:35.157Z,97788.28
2022-10-26T09:23:03.452Z,97786.53
2022-10-26T09:25:33.621Z,97791.63
2022-10-26T09:28:01.468Z,97797.66
2022-10-26T09:30:28.211Z,97794.25
2022-10-26T09:33:20.833Z,97799.31
2022-10-26T09:35:53.204Z,97803.66
2022-10-26T09:38:25.205Z,97804.50
2022-10-26T09:41:13.553Z,97811.38
2022-10-26T09:43:50.960Z,97781.13
2022-10-26T09:46:20.834Z,97808.81
2022-10-26T09:48:53.700Z,97801.13
2022-10-26T09:51:20.303Z,97800.28
2022-10-26T09:53:47.894Z,97802.84
2022-10-26T09:56:14.499Z,97801.13
2022-10-26T09:58:45.424Z,97806.25
2022-10-26T10:01:27.691Z,97797.72
2022-10-26T10:04:13.087Z,97801.97
2022-10-26T10:06:40.250Z,97811.44
2022-10-26T10:09:16.588Z,97814.78
2022-10-26T10:11:57.189Z,97831.94
2022-10-26T10:14:28.450Z,97825.88
2022-10-26T10:16:55.948Z,97796.50
2022-10-26T10:19:24.903Z,97818.22
2022-10-26T10:21:52.100Z,97821.59
2022-10-26T10:24:32.488Z,97827.59
2022-10-26T10:27:00.104Z,97820.78
2022-10-26T10:29:47.689Z,97824.94
2022-10-26T10:32:24.721Z,97837.06
2022-10-26T10:34:52.197Z,97831.94
2022-10-26T10:37:27.648Z,97816.56
2022-10-26T10:40:24.435Z,97819.97
2022-10-26T10:42:51.975Z,97829.38
2022-10-26T10:45:29.028Z,97813.72
2022-10-26T10:48:05.692Z,97829.31
2022-10-26T10:50:32.608Z,97836.22
2022-10-26T10:53:19.547Z,97833.56
2022-10-26T10:55:59.541Z,97832.63
2022-10-26T10:59:01.086Z,97844.75
2022-10-26T11:01:32.583Z,97823.88
2022-10-26T11:04:37.842Z,97744.72
2022-10-26T11:07:04.918Z,97832.59
2022-10-26T11:09:32.875Z,97834.13
2022-10-26T11:12:19.021Z,97846.47
2022-10-26T11:14:48.975Z,97849.91
2022-10-26T11:17:18.077Z,97855.03
2022-10-26T11:20:02.594Z,97859.28
2022-10-26T11:22:35.893Z,97842.03
2022-10-26T11:25:07.660Z,97846.28
2022-10-26T11:27:39.843Z,97851.59
2022-10-26T11:30:07.149Z,97859.31
2022-10-26T11:32:54.865Z,97856.75
2022-10-26T11:35:26.800Z,97855.00
2022-10-26T11:38:46.595Z,97853.31
2022-10-26T11:41:36.569Z,97856.75
2022-10-26T11:44:08.558Z,97848.97
2022-10-26T11:46:38.769Z,97855.88
2022-10-26T11:49:14.362Z,97859.28
2022-10-26T11:51:46.630Z,97855.84
2022-10-26T11:56:53.083Z,97859.31
2022-10-26T11:59:21.127Z,97851.53
2022-10-26T12:01:50.349Z,97857.63
2022-10-26T12:04:18.032Z,97862.72
2022-10-26T12:06:44.522Z,97871.25
2022-10-26T12:09:40.282Z,97868.69
2022-10-26T12:12:38.849Z,97870.38
2022-10-26T12:15:17.310Z,97871.25
2022-10-26T12:17:54.374Z,97878.09
2022-10-26T12:20:39.720Z,97881.50
2022-10-26T12:23:06.231Z,97888.34
2022-10-26T12:25:32.695Z,97884.06
2022-10-26T12:28:00.885Z,97882.38
2022-10-26T12:30:30.484Z,97877.25
2022-10-26T12:33:01.007Z,97854.72
2022-10-26T12:35:31.806Z,97874.75
2022-10-26T12:37:58.597Z,97875.63
2022-10-26T12:40:31.204Z,97879.00
2022-10-26T12:42:58.222Z,97892.69
2022-10-26T12:45:24.851Z,97890.91
2022-10-26T12:47:51.505Z,97888.44
2022-10-26T12:50:24.335Z,97902.97
2022-10-26T12:52:55.894Z,97907.22
2022-10-26T12:55:34.608Z,97904.66
2022-10-26T12:58:31.221Z,97900.41
2022-10-26T13:01:00.667Z,97894.41
2022-10-26T13:04:09.152Z,97896.13
2022-10-26T13:06:47.912Z,97893.56
2022-10-26T13:09:34.660Z,97898.66
2022-10-26T13:12:02.110Z,97893.53
2022-10-26T13:14:34.374Z,97897.81
2022-10-26T13:17:01.862Z,97886.59
2022-10-26T13:19:40.536Z,97908.88
2022-10-26T13:22:13.964Z,97897.66
2022-10-26T13:24:40.474Z,97899.50
2022-10-26T13:27:08.051Z,97900.31
2022-10-26T13:30:03.410Z,97905.50
2022-10-26T13:32:33.480Z,97904.63
2022-10-26T13:35:00.244Z,97887.38
2022-10-26T13:37:27.703Z,97902.84
2022-10-26T13:39:55.946Z,97904.53
2022-10-26T13:42:25.391Z,97908.00
2022-10-26T13:45:03.734Z,97911.47
2022-10-26T13:47:36.777Z,97905.34
2022-10-26T13:50:14.034Z,97917.38
2022-10-26T13:52:45.548Z,97904.38
2022-10-26T13:55:28.758Z,97919.09
2022-10-26T13:58:29.327Z,97914.72
2022-10-26T14:01:14.093Z,97925.91
2022-10-26T14:03:41.144Z,97928.47
2022-10-26T14:06:29.341Z,97929.31
2022-10-26T14:09:01.034Z,97927.53
2022-10-26T14:11:35.826Z,97933.53
2022-10-26T14:14:03.007Z,97928.28
2022-10-26T14:16:30.362Z,97930.97
2022-10-26T14:18:56.857Z,97917.88
2022-10-26T14:21:23.346Z,97926.66
2022-10-26T14:23:56.077Z,97939.56
2022-10-26T14:26:27.722Z,97937.84
2022-10-26T14:29:01.202Z,97941.28
2022-10-26T14:31:32.026Z,97947.25
2022-10-26T14:33:59.812Z,97952.41
2022-10-26T14:36:36.598Z,97948.97
2022-10-26T14:39:07.965Z,97947.94
2022-10-26T14:41:37.462Z,97942.16
2022-10-26T14:44:04.065Z,97944.69
2022-10-26T14:46:34.516Z,97922.97
2022-10-26T14:49:01.546Z,97947.28
2022-10-26T14:51:35.035Z,97949.84
2022-10-26T14:54:01.675Z,97951.53
2022-10-26T14:56:46.097Z,97958.38
2022-10-26T14:59:19.121Z,97948.00
2022-10-26T15:01:58.175Z,97950.69
2022-10-26T15:04:30.655Z,97961.81
2022-10-26T15:07:12.450Z,97962.72
2022-10-26T15:09:43.637Z,97956.69
2022-10-26T15:12:30.140Z,97973.75
2022-10-26T15:14:57.034Z,97966.81
2022-10-26T15:17:27.672Z,97975.53
2022-10-26T15:19:54.236Z,97968.50
2022-10-26T15:22:24.080Z,97981.50
2022-10-26T15:24:52.691Z,97980.59
2022-10-26T15:27:19.183Z,97978.94
2022-10-26T15:29:46.695Z,97977.16
2022-10-26T15:32:18.951Z,97978.97
2022-10-26T15:35:11.927Z,97983.25
2022-10-26T15:37:38.934Z,97982.44
2022-10-26T15:40:06.094Z,97984.09
2022-10-26T15:42:32.608Z,97979.81
2022-10-26T15:44:59.360Z,97986.66
2022-10-26T15:47:29.708Z,97982.44
2022-10-26T15:49:56.216Z,97991.00
2022-10-26T15:52:22.712Z,97994.34
2022-10-26T15:54:49.227Z,97997.81
2022-10-26T15:57:19.138Z,97996.91
2022-10-26T15:59:47.919Z,97999.47
2022-10-26T16:02:14.927Z,98008.06
2022-10-26T16:04:41.511Z,98007.16
2022-10-26T16:07:12.675Z,98001.19
2022-10-26T16:09:39.466Z,97999.44
2022-10-26T16:12:06.251Z,98008.06
2022-10-26T16:14:33.667Z,98014.84
2022-10-26T16:17:08.499Z,98016.63
2022-10-26T16:19:35.038Z,98015.75
2022-10-26T16:22:01.655Z,98024.31
2022-10-26T16:24:28.690Z,98020.03
2022-10-26T16:26:55.230Z,98018.31
2022-10-26T16:29:21.707Z,98024.31
2022-10-26T16:31:48.374Z,98021.75
2022-10-26T16:34:14.907Z,98024.25
2022-10-26T16:36:41.420Z,98032.84
2022-10-26T16:39:10.330Z,98034.63
2022-10-26T16:41:36.811Z,98033.72
2022-10-26T16:44:03.414Z,98026.03
2022-10-26T16:46:29.955Z,98030.13
2022-10-26T16:48:56.499Z,98031.13
2022-10-26T16:51:24.462Z,98037.19
2022-10-26T16:53:52.441Z,98043.16
2022-10-26T16:56:21.143Z,98046.59
2022-10-26T16:58:48.033Z,98051.72
2022-10-26T17:01:18.237Z,98038.72
2022-10-26T17:03:48.509Z,98048.31
2022-10-26T17:06:15.050Z,98047.44
2022-10-26T17:08:41.738Z,98059.47
2022-10-26T17:11:09.124Z,98062.03
2022-10-26T17:13:36.401Z,98074.00
2022-10-26T17:16:07.473Z,98062.91
2022-10-26T17:18:33.955Z,98068.94
2022-10-26T17:21:00.462Z,98077.44
2022-10-26T17:23:26.979Z,98080.91
2022-10-26T17:25:53.683Z,98073.16
2022-10-26T17:28:20.643Z,98084.31
2022-10-26T17:30:47.156Z,98084.31
2022-10-26T17:33:13.704Z,98096.28
2022-10-26T17:35:40.221Z,98091.16
2022-10-26T17:38:06.734Z,98099.69
2022-10-26T17:40:33.311Z,98106.53
2022-10-26T17:43:00.282Z,98107.38
2022-10-26T17:45:26.966Z,98116.78
2022-10-26T17:47:53.706Z,98113.34
2022-10-26T17:50:20.431Z,98102.94
2022-10-26T17:52:46.909Z,98122.75
2022-10-26T17:55:13.467Z,98112.44
2022-10-26T17:57:39.998Z,98115.91
2022-10-26T18:00:06.985Z,98122.69
2022-10-26T18:02:37.462Z,98122.69
2022-10-26T18:05:06.916Z,98120.97
2022-10-26T18:07:34.487Z,98126.97
2022-10-26T18:10:14.002Z,98131.28
2022-10-26T18:12:47.471Z,98142.34
2022-10-26T18:15:13.959Z,98133.75
2022-10-26T18:17:41.731Z,98144.00
2022-10-26T18:20:08.818Z,98144.91
2022-10-26T18:22:35.306Z,98143.00
2022-10-26T18:25:01.764Z,98155.19
2022-10-26T18:27:28.279Z,98153.41
2022-10-26T18:29:54.739Z,98158.53
2022-10-26T18:32:21.230Z,98157.69
2022-10-26T18:34:47.943Z,98157.69
2022-10-26T18:37:14.427Z,98160.25
2022-10-26T18:39:40.927Z,98162.81
2022-10-26T18:42:07.395Z,98161.09
2022-10-26T18:44:33.888Z,98157.63
2022-10-26T18:47:00.355Z,98168.78
2022-10-26T18:49:27.340Z,98178.19
2022-10-26T18:51:53.879Z,98177.34
2022-10-26T18:54:20.891Z,98173.91
2022-10-26T18:56:47.373Z,98175.56
2022-10-26T18:59:13.880Z,98174.78
2022-10-26T19:01:42.100Z,98177.34
2022-10-26T19:04:09.396Z,98177.31
2022-10-26T19:06:37.634Z,98184.16
2022-10-26T19:09:04.520Z,98187.63
2022-10-26T19:11:31.055Z,98182.50
2022-10-26T19:13:57.704Z,98192.75
2022-10-26T19:19:16.082Z,98198.69
2022-10-26T19:21:42.765Z,98202.09
2022-10-26T19:24:17.520Z,98205.56
2022-10-26T19:26:44.439Z,98197.59
2022-10-26T19:29:15.461Z,98208.94
2022-10-26T19:31:42.906Z,98210.69
2022-10-26T19:34:09.965Z,98218.38
2022-10-26T19:36:36.508Z,98216.63
2022-10-26T19:39:03.123Z,98222.63
2022-10-26T19:41:31.232Z,98229.50
2022-10-26T19:46:29.500Z,98225.19
2022-10-26T19:48:57.571Z,98227.63
2022-10-26T19:51:24.312Z,98227.75
2022-10-26T19:53:50.822Z,98230.31
2022-10-26T19:56:17.346Z,98228.50
2022-10-26T19:58:44.256Z,98232.81
2022-10-26T20:01:11.653Z,98234.63
2022-10-26T20:03:38.206Z,98224.28
2022-10-26T20:06:12.812Z,98233.69
2022-10-26T20:08:43.348Z,98238.88
2022-10-26T20:11:13.159Z,98237.19
2022-10-26T20:13:42.502Z,98235.44
2022-10-26T20:16:09.146Z,98241.44
2022-10-26T20:18:35.647Z,98241.44
2022-10-26T20:21:06.040Z,98249.13
2022-10-26T20:23:32.532Z,98239.75
2022-10-26T20:26:00.378Z,98250.00
2022-10-26T20:28:26.976Z,98250.00
2022-10-26T20:30:53.452Z,98248.25
2022-10-26T20:33:19.988Z,98243.13
2022-10-26T20:35:46.541Z,98237.88
2022-10-26T20:38:19.514Z,98261.94
2022-10-26T20:40:50.209Z,98271.31
2022-10-26T20:43:18.114Z,98262.78
2022-10-26T20:45:45.010Z,98256.75
2022-10-26T20:48:11.891Z,98262.78
2022-10-26T20:50:38.420Z,98263.63
2022-10-26T20:53:12.053Z,98262.78
2022-10-26T20:55:50.031Z,98263.56
2022-10-26T20:58:41.410Z,98264.44
2022-10-26T21:01:22.067Z,98260.09
2022-10-26T21:03:48.599Z,98266.03
2022-10-26T21:06:15.120Z,98267.91
2022-10-26T21:08:41.606Z,98277.28
2022-10-26T21:11:08.174Z,98276.38
2022-10-26T21:13:34.634Z,98272.16
2022-10-26T21:16:05.159Z,98285.78
2022-10-26T21:18:32.267Z,98278.09
2022-10-26T21:21:00.007Z,98284.91
2022-10-26T21:23:30.692Z,98294.31
2022-10-26T21:25:57.163Z,98290.03
2022-10-26T21:28:23.706Z,98289.16
2022-10-26T21:30:50.186Z,98285.78
2022-10-26T21:33:18.902Z,98273.78
2022-10-26T21:35:54.555Z,98282.28
2022-10-26T21:38:21.082Z,98284.03
2022-10-26T21:40:47.570Z,98288.28
2022-10-26T21:43:14.114Z,98281.28
2022-10-26T21:45:40.588Z,98289.16
2022-10-26T21:48:07.091Z,98290.81
2022-10-26T21:50:33.631Z,98299.41
2022-10-26T21:53:00.119Z,98294.28
2022-10-26T21:55:26.583Z,98294.28
2022-10-26T21:57:53.880Z,98290.81
2022-10-26T22:00:20.440Z,98295.97
2022-10-26T22:02:46.903Z,98288.19
2022-10-26T22:05:13.399Z,98294.28
2022-10-26T22:07:39.919Z,98294.28
2022-10-26T22:10:10.760Z,98297.66
2022-10-26T22:12:37.737Z,98304.53
2022-10-26T22:15:04.609Z,98303.69
2022-10-26T22:17:31.092Z,98302.84
2022-10-26T22:19:57.611Z,98303.69
2022-10-26T22:22:24.107Z,98299.34
2022-10-26T22:24:50.592Z,98302.78
2022-10-26T22:27:17.062Z,98300.16
2022-10-26T22:29:43.546Z,98301.91
2022-10-26T22:32:10.002Z,98302.78
2022-10-26T22:34:36.527Z,98300.22
2022-10-26T22:37:03.018Z,98296.78
2022-10-26T22:39:29.564Z,98299.34
2022-10-26T22:41:56.047Z,98307.91
2022-10-26T22:44:22.544Z,98307.03
2022-10-26T22:46:49.047Z,98305.34
2022-10-26T22:49:15.593Z,98301.91
2022-10-26T22:51:42.096Z,98301.00
2022-10-26T22:54:08.616Z,98306.19
2022-10-26T22:56:35.415Z,98319.84
2022-10-26T22:59:01.972Z,98306.13
2022-10-26T23:01:31.392Z,98301.06
2022-10-26T23:03:58.374Z,98320.69
2022-10-26T23:06:26.085Z,98305.34
2022-10-26T23:08:52.568Z,98304.47
2022-10-26T23:11:19.916Z,98311.31
2022-10-26T23:13:46.432Z,98308.69
2022-10-26T23:16:14.439Z,98309.47
2022-10-26T23:18:41.092Z,98314.66
2022-10-26T23:21:08.241Z,98315.50
2022-10-26T23:23:35.087Z,98312.94
2022-10-26T23:26:10.128Z,98314.66
2022-10-26T23:28:36.688Z,98298.94
2022-10-26T23:31:03.200Z,98324.13
2022-10-26T23:33:29.743Z,98328.38
2022-10-26T23:35:57.375Z,98330.03
2022-10-26T23:38:24.469Z,98335.22
2022-10-26T23:40:54.695Z,98329.13
2022-10-26T23:43:21.395Z,98324.84
2022-10-26T23:45:47.993Z,98319.78
2022-10-26T23:48:14.953Z,98315.53
2022-10-26T23:50:43.016Z,98304.34
2022-10-26T23:53:10.320Z,98315.53
2022-10-26T23:55:36.863Z,98313.00
2022-10-26T23:58:03.327Z,98311.31
